createdAt,value
2018-12-25T00:01:52.292Z,14.57
2018-12-25T00:04:18.672Z,13.37
2018-12-25T00:06:45.071Z,10.57
2018-12-25T00:09:11.664Z,15.47
2018-12-25T00:11:38.050Z,11.27
2018-12-25T00:14:06.161Z,14.23
2018-12-25T00:16:32.819Z,13.83
2018-12-25T00:19:06.089Z,9.37
2018-12-25T00:21:27.564Z,13.90
2018-12-25T00:23:54.168Z,12.80
2018-12-25T00:26:20.577Z,12.93
2018-12-25T00:28:46.961Z,16.77
2018-12-25T00:31:13.387Z,16.30
2018-12-25T00:33:39.805Z,8.20
2018-12-25T00:36:06.215Z,12.03
2018-12-25T00:38:32.614Z,13.30
2018-12-25T00:40:59.052Z,9.00
2018-12-25T00:43:25.532Z,14.10
2018-12-25T00:46:11.863Z,8.37
2018-12-25T00:48:58.144Z,9.70
2018-12-25T00:51:44.631Z,16.73
2018-12-25T00:54:30.931Z,13.90
2018-12-25T00:57:17.442Z,14.70
2018-12-25T01:00:03.754Z,14.80
2018-12-25T01:02:50.041Z,11.97
2018-12-25T01:05:36.329Z,14.80
2018-12-25T01:08:22.681Z,14.20
2018-12-25T01:11:08.964Z,9.30
2018-12-25T01:13:55.315Z,20.50
2018-12-25T01:16:41.604Z,16.13
2018-12-25T01:19:27.927Z,13.80
2018-12-25T01:22:14.219Z,11.80
2018-12-25T01:25:00.620Z,17.33
2018-12-25T01:27:47.004Z,13.17
2018-12-25T01:30:33.350Z,12.33
2018-12-25T01:33:19.620Z,11.93
2018-12-25T01:36:13.158Z,11.93
2018-12-25T02:05:40.964Z,18.73
2018-12-25T02:08:07.356Z,14.00
2018-12-25T02:10:33.866Z,15.60
2018-12-25T02:13:00.292Z,17.30
2018-12-25T02:15:46.597Z,14.23
2018-12-25T02:18:33.150Z,15.67
2018-12-25T02:21:19.455Z,15.47
2018-12-25T02:24:05.963Z,14.30
2018-12-25T02:26:52.262Z,20.70
2018-12-25T02:29:38.779Z,13.80
2018-12-25T02:32:25.094Z,20.87
2018-12-25T02:35:11.414Z,18.50
2018-12-25T02:37:57.729Z,15.90
2018-12-25T02:40:44.151Z,17.80
2018-12-25T02:43:30.461Z,23.70
2018-12-25T02:46:16.765Z,16.77
2018-12-25T02:49:03.036Z,20.17
2018-12-25T02:51:49.399Z,18.80
2018-12-25T02:54:35.660Z,18.10
2018-12-25T02:57:21.992Z,19.63
2018-12-25T03:00:08.361Z,13.50
2018-12-25T03:02:54.881Z,18.50
2018-12-25T03:05:41.178Z,13.53
2018-12-25T06:45:17.840Z,2.40
2018-12-25T06:47:44.224Z,5.93
2018-12-25T06:50:10.638Z,5.23
2018-12-25T06:52:37.093Z,4.70
2018-12-25T06:55:03.567Z,4.10
2018-12-25T06:57:29.977Z,7.40
2018-12-25T06:59:56.401Z,3.70
2018-12-25T07:02:22.783Z,4.80
2018-12-25T07:04:49.256Z,2.00
2018-12-25T07:07:15.991Z,4.27
2018-12-25T07:09:42.479Z,3.80
2018-12-25T07:12:08.898Z,4.20
2018-12-25T07:14:35.324Z,3.60
2018-12-25T07:17:01.740Z,4.17
2018-12-25T07:19:28.155Z,3.60
2018-12-25T07:21:54.889Z,3.43
2018-12-25T07:24:21.263Z,6.53
2018-12-25T07:26:47.657Z,6.30
2018-12-25T07:29:14.285Z,3.40
2018-12-25T07:31:40.667Z,2.97
2018-12-25T07:34:07.086Z,2.30
2018-12-25T07:36:33.763Z,3.20
2018-12-25T07:39:00.144Z,6.50
2018-12-25T07:41:26.566Z,4.30
2018-12-25T07:43:53.052Z,4.30
2018-12-25T07:46:19.541Z,4.27
2018-12-25T07:48:46.044Z,4.97
2018-12-25T07:51:20.509Z,4.87
2018-12-25T07:53:40.984Z,7.23
2018-12-25T07:56:07.464Z,11.47
2018-12-25T07:58:33.897Z,7.93
2018-12-25T08:01:00.290Z,6.00
2018-12-25T08:03:26.704Z,3.20
2018-12-25T08:05:53.575Z,2.43
2018-12-25T08:08:20.144Z,4.60
2018-12-25T08:10:46.580Z,9.90
2018-12-25T08:13:13.037Z,5.00
2018-12-25T08:15:39.507Z,8.07
2018-12-25T08:18:05.904Z,2.97
2018-12-25T08:20:32.333Z,6.17
2018-12-25T08:23:02.684Z,3.77
2018-12-25T08:25:27.129Z,3.90
2018-12-25T08:27:53.632Z,9.40
2018-12-25T08:30:20.053Z,8.63
2018-12-25T08:32:46.423Z,4.83
2018-12-25T08:35:12.826Z,3.10
2018-12-25T08:37:39.275Z,18.63
2018-12-25T08:40:05.674Z,4.40
2018-12-25T08:42:32.229Z,4.57
2018-12-25T08:44:58.640Z,8.27
2018-12-25T08:47:25.040Z,3.57
2018-12-25T08:49:51.449Z,5.07
2018-12-25T08:52:17.900Z,5.83
2018-12-25T08:54:44.401Z,6.23
2018-12-25T08:57:11.072Z,7.70
2018-12-25T08:59:37.574Z,4.33
2018-12-25T09:02:04.053Z,2.70
2018-12-25T09:04:30.505Z,2.93
2018-12-25T09:06:56.875Z,1.20
2018-12-25T09:09:23.273Z,3.13
2018-12-25T09:11:50.000Z,4.93
2018-12-25T09:14:16.402Z,3.77
2018-12-25T09:16:42.851Z,6.00
2018-12-25T09:19:09.537Z,4.10
2018-12-25T09:21:35.911Z,5.53
2018-12-25T09:24:02.324Z,2.37
2018-12-25T09:26:29.009Z,5.33
2018-12-25T09:28:55.403Z,3.30
2018-12-25T09:31:21.782Z,7.03
2018-12-25T09:33:48.236Z,6.87
2018-12-25T09:36:14.639Z,3.10
2018-12-25T09:38:41.122Z,3.70
2018-12-25T09:41:07.849Z,4.67
2018-12-25T09:43:34.235Z,6.40
2018-12-25T09:46:00.615Z,6.20
2018-12-25T09:48:27.327Z,10.00
2018-12-25T09:50:53.713Z,5.03
2018-12-25T09:53:20.165Z,6.37
2018-12-25T09:55:46.961Z,5.30
2018-12-25T09:58:13.376Z,3.57
2018-12-25T10:00:39.803Z,6.43
2018-12-25T10:03:06.221Z,9.20
2018-12-25T10:05:32.632Z,4.57
2018-12-25T10:07:59.055Z,4.50
2018-12-25T10:10:25.684Z,2.70
2018-12-25T10:12:52.097Z,4.63
2018-12-25T10:15:18.505Z,4.43
2018-12-25T10:17:45.211Z,3.23
2018-12-25T10:20:11.630Z,4.93
2018-12-25T10:22:38.000Z,6.10
2018-12-25T10:25:04.404Z,5.67
2018-12-25T10:27:30.830Z,5.27
2018-12-25T10:29:57.212Z,5.07
2018-12-25T10:32:23.979Z,8.27
2018-12-25T10:34:50.454Z,4.23
2018-12-25T10:37:16.919Z,10.20
2018-12-25T10:39:43.349Z,4.80
2018-12-25T10:42:09.819Z,5.20
2018-12-25T10:44:36.240Z,6.27
2018-12-25T10:47:02.985Z,5.20
2018-12-25T10:49:29.396Z,4.70
2018-12-25T10:51:55.797Z,5.37
2018-12-25T10:54:22.499Z,5.90
2018-12-25T10:56:48.975Z,4.67
2018-12-25T10:59:15.464Z,4.33
2018-12-25T11:01:41.913Z,7.50
2018-12-25T11:04:08.310Z,6.97
2018-12-25T11:06:34.716Z,7.00
2018-12-25T11:09:01.407Z,6.47
2018-12-25T11:11:27.780Z,7.07
2018-12-25T11:13:54.258Z,5.67
2018-12-25T11:16:20.724Z,6.53
2018-12-25T11:18:49.238Z,6.00
2018-12-25T11:21:15.415Z,4.13
2018-12-25T11:23:41.811Z,3.77
2018-12-25T11:26:08.248Z,2.80
2018-12-25T11:28:34.719Z,2.53
2018-12-25T11:31:01.173Z,9.47
2018-12-25T11:33:27.551Z,3.73
2018-12-25T11:35:53.972Z,5.20
2018-12-25T11:38:20.433Z,2.03
2018-12-25T11:40:47.406Z,3.30
2018-12-25T11:43:13.896Z,4.30
2018-12-25T11:45:40.345Z,4.07
2018-12-25T11:48:06.758Z,4.20
2018-12-25T11:50:33.208Z,8.03
2018-12-25T11:52:59.644Z,3.83
2018-12-25T11:55:26.113Z,3.67
2018-12-25T11:57:52.522Z,9.27
2018-12-25T12:00:19.235Z,3.60
2018-12-25T12:02:45.653Z,3.90
2018-12-25T12:05:12.035Z,4.20
2018-12-25T12:07:38.463Z,2.07
2018-12-25T12:10:06.485Z,3.83
2018-12-25T12:12:32.991Z,5.07
2018-12-25T12:14:59.415Z,4.17
2018-12-25T12:17:25.833Z,4.23
2018-12-25T12:19:52.428Z,5.23
2018-12-25T12:22:19.217Z,5.00
2018-12-25T12:24:45.599Z,3.43
2018-12-25T12:27:12.091Z,5.70
2018-12-25T12:29:38.564Z,4.90
2018-12-25T12:32:04.981Z,4.43
2018-12-25T12:34:31.490Z,2.83
2018-12-25T12:36:58.127Z,8.30
2018-12-25T12:39:24.507Z,12.33
2018-12-25T12:41:50.929Z,6.00
2018-12-25T12:44:17.628Z,4.57
2018-12-25T12:46:44.015Z,3.97
2018-12-25T12:49:10.400Z,6.53
2018-12-25T12:51:36.831Z,6.30
2018-12-25T12:54:03.236Z,3.90
2018-12-25T12:56:29.628Z,5.90
2018-12-25T12:58:56.341Z,7.90
2018-12-25T13:01:22.723Z,7.90
2018-12-25T13:03:49.101Z,5.13
2018-12-25T13:06:15.679Z,6.37
2018-12-25T13:08:42.092Z,4.83
2018-12-25T13:11:08.479Z,5.00
2018-12-25T13:13:34.907Z,3.30
2018-12-25T13:16:01.288Z,6.20
2018-12-25T13:18:27.709Z,7.33
2018-12-25T13:20:54.225Z,5.10
2018-12-25T13:23:20.633Z,3.13
2018-12-25T13:25:47.024Z,9.20
2018-12-25T13:28:13.713Z,6.50
2018-12-25T13:30:40.204Z,8.50
2018-12-25T13:33:06.579Z,5.33
2018-12-25T13:35:33.016Z,5.77
2018-12-25T13:37:59.431Z,4.83
2018-12-25T13:40:25.876Z,12.73
2018-12-25T13:42:52.591Z,8.80
2018-12-25T13:45:19.014Z,4.27
2018-12-25T13:47:45.509Z,6.33
2018-12-25T13:50:11.940Z,7.77
2018-12-25T13:52:38.375Z,3.40
2018-12-25T13:55:04.791Z,7.90
2018-12-25T13:57:31.259Z,4.90
2018-12-25T13:59:57.635Z,4.93
2018-12-25T14:02:24.053Z,6.80
2018-12-25T14:04:50.556Z,6.60
2018-12-25T14:07:16.976Z,5.50
2018-12-25T14:09:43.352Z,12.77
2018-12-25T14:12:10.013Z,8.83
2018-12-25T14:14:36.445Z,3.90
2018-12-25T14:17:02.835Z,10.80
2018-12-25T14:19:29.303Z,12.60
2018-12-25T14:21:55.702Z,5.17
2018-12-25T14:24:22.104Z,3.90
2018-12-25T14:26:48.599Z,6.53
2018-12-25T14:29:15.008Z,6.50
2018-12-25T14:31:41.424Z,5.03
2018-12-25T14:34:07.849Z,8.90
2018-12-25T14:36:34.276Z,4.10
2018-12-25T14:39:00.691Z,3.33
2018-12-25T14:41:27.219Z,5.47
2018-12-25T14:43:53.631Z,4.37
2018-12-25T14:46:20.141Z,6.20
2018-12-25T14:48:46.531Z,11.20
2018-12-25T14:51:12.952Z,7.10
2018-12-25T14:53:39.482Z,7.70
2018-12-25T14:56:06.141Z,8.47
2018-12-25T14:58:32.585Z,10.03
2018-12-25T15:00:59.001Z,7.90
2018-12-25T15:03:25.765Z,7.03
2018-12-25T15:05:52.290Z,8.53
2018-12-25T15:08:18.777Z,13.73
2018-12-25T15:10:45.167Z,6.20
2018-12-25T15:13:11.556Z,4.10
2018-12-25T15:15:37.980Z,9.20
2018-12-25T15:18:04.443Z,7.00
2018-12-25T15:20:30.860Z,6.50
2018-12-25T15:22:57.269Z,10.00
2018-12-25T15:25:23.687Z,11.93
2018-12-25T15:27:50.064Z,13.93
2018-12-25T15:30:16.576Z,7.20
2018-12-25T15:32:43.272Z,6.60
2018-12-25T15:35:09.678Z,5.60
2018-12-25T15:37:36.056Z,11.17
2018-12-25T15:40:03.094Z,5.80
2018-12-25T15:42:29.545Z,3.40
2018-12-25T15:44:55.927Z,5.50
2018-12-25T15:47:22.434Z,9.17
2018-12-25T15:49:48.805Z,4.80
2018-12-25T15:52:15.189Z,12.17
2018-12-25T15:54:41.926Z,10.67
2018-12-25T15:57:08.345Z,6.23
2018-12-25T15:59:34.772Z,4.40
2018-12-25T16:02:01.167Z,3.53
2018-12-25T16:04:27.620Z,10.30
2018-12-25T16:06:54.063Z,9.70
2018-12-25T16:09:20.720Z,9.77
2018-12-25T16:11:47.134Z,7.73
2018-12-25T16:14:13.571Z,5.37
2018-12-25T16:16:40.320Z,5.90
2018-12-25T16:19:06.700Z,9.10
2018-12-25T16:21:33.119Z,3.70
2018-12-25T16:23:59.626Z,3.93
2018-12-25T16:26:25.998Z,7.90
2018-12-25T16:28:52.387Z,3.63
2018-12-25T16:31:18.870Z,12.23
2018-12-25T16:33:45.300Z,5.53
2018-12-25T16:36:11.713Z,7.00
2018-12-25T16:38:38.137Z,8.30
2018-12-25T16:41:04.516Z,4.13
2018-12-25T16:43:30.929Z,10.07
2018-12-25T16:45:57.435Z,7.90
2018-12-25T16:48:23.816Z,3.60
2018-12-25T16:50:50.204Z,11.13
2018-12-25T16:53:16.826Z,13.67
2018-12-25T16:55:43.212Z,8.50
2018-12-25T16:58:09.597Z,9.03
2018-12-25T17:00:36.047Z,5.47
2018-12-25T17:03:02.453Z,4.90
2018-12-25T17:05:28.865Z,8.73
2018-12-25T17:07:57.325Z,10.20
2018-12-25T17:10:23.549Z,9.70
2018-12-25T17:12:49.960Z,6.83
2018-12-25T17:15:16.539Z,10.10
2018-12-25T17:17:42.948Z,11.70
2018-12-25T17:20:09.329Z,10.40
2018-12-25T17:22:35.732Z,7.90
2018-12-25T17:25:02.118Z,9.17
2018-12-25T17:27:28.546Z,10.00
2018-12-25T17:29:54.939Z,6.97
2018-12-25T17:32:21.349Z,7.93
2018-12-25T17:34:47.724Z,8.07
2018-12-25T17:37:14.142Z,12.10
2018-12-25T17:39:40.524Z,16.80
2018-12-25T17:42:06.937Z,7.57
2018-12-25T17:44:33.343Z,6.07
2018-12-25T17:46:59.783Z,11.53
2018-12-25T17:49:26.166Z,9.80
2018-12-25T17:51:52.892Z,8.90
2018-12-25T17:54:19.351Z,5.80
2018-12-25T17:56:45.801Z,5.30
2018-12-25T17:59:12.552Z,4.40
2018-12-25T18:01:38.931Z,7.73
2018-12-25T18:04:05.336Z,9.93
2018-12-25T18:06:31.778Z,10.30
2018-12-25T18:08:58.248Z,8.60
2018-12-25T18:11:24.674Z,7.47
2018-12-25T18:13:51.159Z,7.43
2018-12-25T18:16:17.542Z,5.93
2018-12-25T18:18:43.961Z,10.10
2018-12-25T18:21:10.356Z,7.40
2018-12-25T18:23:36.731Z,8.30
2018-12-25T18:26:03.149Z,7.27
2018-12-25T18:28:29.579Z,7.70
2018-12-25T18:30:55.993Z,10.87
2018-12-25T18:33:22.401Z,6.23
2018-12-25T18:35:49.093Z,9.40
2018-12-25T18:38:15.459Z,6.30
2018-12-25T18:40:41.846Z,6.63
2018-12-25T18:43:08.297Z,10.63
2018-12-25T18:45:37.563Z,5.03
2018-12-25T18:48:03.947Z,6.50
2018-12-25T18:50:30.339Z,8.70
2018-12-25T18:52:56.723Z,6.00
2018-12-25T18:55:23.137Z,11.93
2018-12-25T18:57:49.848Z,10.27
2018-12-25T19:00:16.263Z,6.73
2018-12-25T19:02:42.673Z,11.43
2018-12-25T19:05:09.110Z,11.10
2018-12-25T19:07:35.499Z,7.00
2018-12-25T19:10:02.586Z,7.00
2018-12-25T19:12:29.109Z,6.40
2018-12-25T19:14:56.017Z,5.37
2018-12-25T19:17:22.395Z,9.50
2018-12-25T19:19:48.834Z,4.83
2018-12-25T19:22:15.245Z,6.90
2018-12-25T19:24:41.624Z,8.43
2018-12-25T19:27:08.068Z,6.33
2018-12-25T19:29:34.448Z,8.67
2018-12-25T19:32:00.878Z,5.90
2018-12-25T19:34:27.393Z,5.70
2018-12-25T19:36:53.805Z,7.40
2018-12-25T19:39:20.220Z,5.90
2018-12-25T19:41:46.745Z,6.20
2018-12-25T19:44:13.157Z,4.47
2018-12-25T19:46:39.561Z,9.03
2018-12-25T19:49:06.201Z,8.07
2018-12-25T19:51:32.598Z,8.93
2018-12-25T19:53:58.975Z,6.20
2018-12-25T19:56:25.379Z,6.70
2018-12-25T19:58:51.821Z,5.30
2018-12-25T20:01:18.195Z,9.13
2018-12-25T20:03:44.619Z,6.10
2018-12-25T20:06:18.732Z,6.93
2018-12-25T20:08:56.452Z,5.27
2018-12-25T20:11:33.971Z,4.00
2018-12-25T20:14:20.430Z,5.10
2018-12-25T20:16:51.749Z,10.07
2018-12-25T20:19:23.133Z,2.80
2018-12-25T20:21:51.407Z,9.00
2018-12-25T20:24:19.778Z,7.60
2018-12-25T20:27:05.083Z,4.90
2018-12-25T20:29:51.799Z,3.97
2018-12-25T20:32:37.188Z,7.63
2018-12-25T20:35:20.613Z,8.50
2018-12-25T20:37:52.297Z,12.60
2018-12-25T20:40:20.571Z,10.43
2018-12-25T20:42:57.832Z,8.60
2018-12-25T20:45:26.145Z,4.50
2018-12-25T20:48:06.772Z,4.47
2018-12-25T20:50:35.106Z,9.10
2018-12-25T20:53:03.528Z,5.63
2018-12-25T20:55:41.489Z,7.13
2018-12-25T20:58:09.970Z,4.30
2018-12-25T21:00:41.112Z,4.03
2018-12-25T21:03:15.521Z,8.23
2018-12-25T21:05:46.579Z,5.67
2018-12-25T21:08:15.016Z,6.00
2018-12-25T21:10:52.153Z,7.23
2018-12-25T21:13:23.213Z,9.43
2018-12-25T21:16:08.625Z,5.60
2018-12-25T21:18:36.941Z,8.70
2018-12-25T21:21:08.295Z,6.43
2018-12-25T21:23:53.619Z,6.70
2018-12-25T21:26:38.672Z,7.50
2018-12-25T21:29:05.189Z,9.87
2018-12-25T21:31:31.671Z,5.47
2018-12-25T21:33:58.086Z,5.80
2018-12-25T21:36:24.835Z,3.97
2018-12-25T21:38:51.257Z,11.17
2018-12-25T21:41:17.968Z,6.73
2018-12-25T21:43:44.594Z,8.93
2018-12-25T21:46:10.977Z,7.63
2018-12-25T21:48:37.416Z,6.63
2018-12-25T21:51:03.808Z,6.70
2018-12-25T21:53:30.229Z,5.27
2018-12-25T21:55:56.944Z,6.00
2018-12-25T21:58:23.648Z,6.60
2018-12-25T22:00:50.261Z,7.00
2018-12-25T22:03:17.016Z,7.20
2018-12-25T22:05:43.681Z,6.60
2018-12-25T22:08:10.064Z,10.07
2018-12-25T22:10:36.536Z,4.90
2018-12-25T22:13:03.054Z,5.50
2018-12-25T22:15:29.552Z,4.80
2018-12-25T22:17:55.956Z,7.80
2018-12-25T22:20:22.593Z,8.87
2018-12-25T22:22:49.060Z,8.47
2018-12-25T22:25:15.477Z,4.87
2018-12-25T22:27:41.900Z,8.53
2018-12-25T22:30:08.291Z,7.97
2018-12-25T22:32:34.697Z,5.27
2018-12-25T22:35:01.106Z,8.57
2018-12-25T22:37:27.528Z,8.47
2018-12-25T22:39:53.938Z,7.00
2018-12-25T22:42:20.688Z,9.90
2018-12-25T22:44:47.105Z,5.37
2018-12-25T22:47:13.585Z,8.23
2018-12-25T22:49:39.995Z,10.63
2018-12-25T22:52:06.523Z,7.40
2018-12-25T22:54:35.916Z,6.63
2018-12-25T22:57:02.327Z,4.27
2018-12-25T22:59:28.711Z,10.77
2018-12-25T23:01:55.124Z,8.03
2018-12-25T23:04:21.797Z,3.67
2018-12-25T23:06:48.183Z,4.20
2018-12-25T23:09:14.608Z,6.47
2018-12-25T23:11:41.052Z,9.10
2018-12-25T23:14:07.460Z,6.80
2018-12-25T23:16:33.868Z,11.60
2018-12-25T23:19:00.266Z,9.90
2018-12-25T23:21:26.639Z,12.33
2018-12-25T23:23:53.057Z,10.10
2018-12-25T23:26:19.496Z,6.77
2018-12-25T23:28:45.881Z,9.73
2018-12-25T23:31:12.357Z,11.00
2018-12-25T23:33:38.817Z,8.10
2018-12-25T23:36:05.204Z,6.97
2018-12-25T23:38:31.621Z,11.50
2018-12-25T23:40:58.074Z,8.00
2018-12-25T23:43:24.497Z,9.33
2018-12-25T23:45:50.993Z,5.30
2018-12-25T23:48:17.387Z,7.13
2018-12-25T23:50:43.772Z,12.17
2018-12-25T23:53:10.214Z,11.43
2018-12-25T23:55:37.014Z,11.17
2018-12-25T23:58:03.424Z,5.77
